createdAt,value
2024-03-12T00:00:02.911Z,31.89
2024-03-12T00:01:03.046Z,31.93
2024-03-12T00:02:03.173Z,31.96
2024-03-12T00:03:03.293Z,31.93
2024-03-12T00:04:03.537Z,31.87
2024-03-12T00:05:03.620Z,31.82
2024-03-12T00:06:03.801Z,31.91
2024-03-12T00:07:04.017Z,31.86
2024-03-12T00:08:04.120Z,31.81
2024-03-12T00:09:04.291Z,31.92
2024-03-12T00:10:04.655Z,31.82
2024-03-12T00:11:04.643Z,31.76
2024-03-12T00:12:04.780Z,31.79
2024-03-12T00:13:04.944Z,31.83
2024-03-12T00:14:05.188Z,31.86
2024-03-12T00:15:05.252Z,31.83
2024-03-12T00:16:05.484Z,31.86
2024-03-12T00:17:05.569Z,31.83
2024-03-12T00:18:05.798Z,31.90
2024-03-12T00:19:05.911Z,31.87
2024-03-12T00:20:06.096Z,31.92
2024-03-12T00:21:06.222Z,31.92
2024-03-12T00:22:06.465Z,31.90
2024-03-12T00:23:06.541Z,31.85
2024-03-12T00:24:06.721Z,31.85
2024-03-12T00:25:06.904Z,31.83
2024-03-12T00:26:07.053Z,31.86
2024-03-12T00:27:07.285Z,31.76
2024-03-12T00:28:07.451Z,31.76
2024-03-12T00:29:07.351Z,31.83
2024-03-12T00:30:07.439Z,31.80
2024-03-12T00:31:07.617Z,31.82
2024-03-12T00:32:07.731Z,31.80
2024-03-12T00:33:07.970Z,31.89
2024-03-12T00:34:08.132Z,31.87
2024-03-12T00:35:08.239Z,31.85
2024-03-12T00:36:08.285Z,31.90
2024-03-12T00:37:08.449Z,31.84
2024-03-12T00:38:08.463Z,31.78
2024-03-12T00:39:08.539Z,31.83
2024-03-12T00:40:08.770Z,31.75
2024-03-12T00:41:08.710Z,31.75
2024-03-12T00:42:08.799Z,31.80
2024-03-12T00:43:09.123Z,31.86
2024-03-12T00:44:09.004Z,31.87
2024-03-12T00:45:09.074Z,31.92
2024-03-12T00:46:09.156Z,31.87
2024-03-12T00:47:09.232Z,31.87
2024-03-12T00:48:09.334Z,31.93
2024-03-12T00:49:09.453Z,31.97
2024-03-12T00:50:09.558Z,31.90
2024-03-12T00:51:09.738Z,31.83
2024-03-12T00:52:09.981Z,31.94
2024-03-12T00:53:10.068Z,31.86
2024-03-12T00:54:10.234Z,31.84
2024-03-12T00:55:10.514Z,31.83
2024-03-12T00:56:11.589Z,31.72
2024-03-12T00:57:10.631Z,31.84
2024-03-12T00:58:10.752Z,31.80
2024-03-12T00:59:10.816Z,31.91
2024-03-12T01:00:10.900Z,31.86
2024-03-12T01:01:11.168Z,31.81
2024-03-12T01:02:11.252Z,31.77
2024-03-12T01:03:11.410Z,31.87
2024-03-12T01:04:11.593Z,31.81
2024-03-12T01:05:11.766Z,31.77
2024-03-12T01:06:11.811Z,31.81
2024-03-12T01:07:11.936Z,31.86
2024-03-12T01:08:11.939Z,31.87
2024-03-12T01:09:12.015Z,31.86
2024-03-12T01:10:12.201Z,31.88
2024-03-12T01:11:12.237Z,31.80
2024-03-12T01:12:12.257Z,31.84
2024-03-12T01:13:12.748Z,31.84
2024-03-12T01:14:12.383Z,31.86
2024-03-12T01:15:12.468Z,31.92
2024-03-12T01:16:12.567Z,31.94
2024-03-12T01:17:12.614Z,31.95
2024-03-12T01:18:12.794Z,31.87
2024-03-12T01:19:12.961Z,31.88
2024-03-12T01:20:13.106Z,31.84
2024-03-12T01:21:13.279Z,31.83
2024-03-12T01:22:13.425Z,31.85
2024-03-12T01:23:13.621Z,31.87
2024-03-12T01:24:13.784Z,31.86
2024-03-12T01:25:13.995Z,31.89
2024-03-12T01:26:14.144Z,31.84
2024-03-12T01:27:14.239Z,31.88
2024-03-12T01:28:14.369Z,31.94
2024-03-12T01:29:14.394Z,31.84
2024-03-12T01:30:14.443Z,31.89
2024-03-12T01:31:14.609Z,31.94
2024-03-12T01:32:14.757Z,31.88
2024-03-12T01:33:14.999Z,31.81
2024-03-12T01:34:15.109Z,31.77
2024-03-12T01:35:15.301Z,31.88
2024-03-12T01:36:15.440Z,31.85
2024-03-12T01:37:15.636Z,31.96
2024-03-12T01:38:15.684Z,31.88
2024-03-12T01:39:15.765Z,31.91
2024-03-12T01:40:15.841Z,31.88
2024-03-12T01:41:15.878Z,31.82
2024-03-12T01:42:16.065Z,31.85
2024-03-12T01:43:16.274Z,31.87
2024-03-12T01:44:16.423Z,31.78
2024-03-12T01:45:17.077Z,31.81
2024-03-12T01:46:16.714Z,31.88
2024-03-12T01:47:16.730Z,31.82
2024-03-12T01:48:16.793Z,31.85
2024-03-12T01:49:16.883Z,31.84
2024-03-12T01:50:17.064Z,31.89
2024-03-12T01:51:17.197Z,31.89
2024-03-12T01:52:17.257Z,31.89
2024-03-12T01:53:17.332Z,31.91
2024-03-12T01:54:17.382Z,31.92
2024-03-12T01:55:22.564Z,31.86
2024-03-12T01:56:17.481Z,31.91
2024-03-12T01:57:17.494Z,31.92
2024-03-12T01:58:17.840Z,31.84
2024-03-12T01:59:17.527Z,31.85
2024-03-12T02:00:17.506Z,31.95
2024-03-12T02:01:17.654Z,31.92
2024-03-12T02:02:17.519Z,31.79
2024-03-12T02:03:17.598Z,31.81
2024-03-12T02:04:17.604Z,31.91
2024-03-12T02:05:17.653Z,31.89
2024-03-12T02:06:17.710Z,31.91
2024-03-12T02:07:17.761Z,31.91
2024-03-12T02:08:18.070Z,31.92
2024-03-12T02:09:17.837Z,31.85
2024-03-12T02:10:17.903Z,31.83
2024-03-12T02:11:17.974Z,31.79
2024-03-12T02:12:18.002Z,31.94
2024-03-12T02:13:18.089Z,31.92
2024-03-12T02:14:18.112Z,31.86
2024-03-12T02:15:18.165Z,31.88
2024-03-12T02:16:18.257Z,31.93
2024-03-12T02:17:18.279Z,31.92
2024-03-12T02:18:18.375Z,31.86
2024-03-12T02:19:18.408Z,31.85
2024-03-12T02:20:18.437Z,31.88
2024-03-12T02:21:18.498Z,31.93
2024-03-12T02:22:18.546Z,31.88
2024-03-12T02:23:18.629Z,31.82
2024-03-12T02:24:18.657Z,31.91
2024-03-12T02:25:18.714Z,31.79
2024-03-12T02:26:18.736Z,31.82
2024-03-12T02:27:18.782Z,31.82
2024-03-12T02:28:18.855Z,31.79
2024-03-12T02:29:18.882Z,31.86
2024-03-12T02:30:18.980Z,31.89
2024-03-12T02:31:19.058Z,31.88
2024-03-12T02:32:19.182Z,31.85
2024-03-12T02:33:19.298Z,31.78
2024-03-12T02:34:19.306Z,31.83
2024-03-12T02:35:19.353Z,31.92
2024-03-12T02:36:19.406Z,31.82
2024-03-12T02:37:19.517Z,31.85
2024-03-12T02:38:19.705Z,31.88
2024-03-12T02:39:19.773Z,31.85
2024-03-12T02:40:20.063Z,31.86
2024-03-12T02:41:19.899Z,31.86
2024-03-12T02:42:19.951Z,31.86
2024-03-12T02:43:20.024Z,31.86
2024-03-12T02:44:20.093Z,31.94
2024-03-12T02:45:20.144Z,31.83
2024-03-12T02:46:20.205Z,31.85
2024-03-12T02:47:20.276Z,31.86
2024-03-12T02:48:20.357Z,31.65
2024-03-12T02:49:20.412Z,31.82
2024-03-12T02:50:20.500Z,31.90
2024-03-12T02:51:20.579Z,31.88
2024-03-12T02:52:20.633Z,31.94
2024-03-12T02:53:20.700Z,31.93
2024-03-12T02:54:20.752Z,31.87
2024-03-12T02:55:20.810Z,31.87
2024-03-12T02:56:20.863Z,31.87
2024-03-12T02:57:20.934Z,31.96
2024-03-12T02:58:21.006Z,31.82
2024-03-12T02:59:21.059Z,31.78
2024-03-12T03:00:21.104Z,31.77
2024-03-12T03:01:21.339Z,31.90
2024-03-12T03:02:21.350Z,31.88
2024-03-12T03:03:21.405Z,31.77
2024-03-12T03:04:21.438Z,31.68
2024-03-12T03:05:21.530Z,31.77
2024-03-12T03:06:21.704Z,31.73
2024-03-12T03:07:21.880Z,31.69
2024-03-12T03:08:31.900Z,31.74
2024-03-12T03:09:31.878Z,31.79
2024-03-12T03:10:31.880Z,31.73
2024-03-12T03:11:31.873Z,31.72
2024-03-12T03:12:31.938Z,31.80
2024-03-12T03:13:31.866Z,31.80
2024-03-12T03:14:31.898Z,31.75
2024-03-12T03:15:31.938Z,31.74
2024-03-12T03:16:31.889Z,31.79
2024-03-12T03:17:31.931Z,31.74
2024-03-12T03:18:32.081Z,31.87
2024-03-12T03:19:32.217Z,31.76
2024-03-12T03:20:32.392Z,31.83
2024-03-12T03:21:32.589Z,31.87
2024-03-12T03:22:32.694Z,31.90
2024-03-12T03:23:32.848Z,31.79
2024-03-12T03:24:33.008Z,31.84
2024-03-12T03:25:33.079Z,31.70
2024-03-12T03:26:33.181Z,31.73
2024-03-12T03:27:33.297Z,31.84
2024-03-12T03:28:33.363Z,31.74
2024-03-12T03:29:33.478Z,31.83
2024-03-12T03:30:33.613Z,31.83
2024-03-12T03:31:33.724Z,31.81
2024-03-12T03:32:33.945Z,31.80
2024-03-12T03:33:34.015Z,31.79
2024-03-12T03:34:34.063Z,31.80
2024-03-12T03:35:34.177Z,31.79
2024-03-12T03:36:34.264Z,31.80
2024-03-12T03:37:34.350Z,31.87
2024-03-12T03:38:39.488Z,31.85
2024-03-12T03:39:34.539Z,31.79
2024-03-12T03:40:34.524Z,31.80
2024-03-12T03:41:34.520Z,31.90
2024-03-12T03:42:34.547Z,31.80
2024-03-12T03:43:34.522Z,31.81
2024-03-12T03:44:36.334Z,31.90
2024-03-12T03:45:34.559Z,31.84
2024-03-12T03:46:34.540Z,31.86
2024-03-12T03:47:34.552Z,31.92
2024-03-12T03:48:34.624Z,31.94
2024-03-12T03:49:34.630Z,31.94
2024-03-12T03:50:34.698Z,31.85
2024-03-12T03:51:34.820Z,31.73
2024-03-12T03:52:34.894Z,31.80
2024-03-12T03:53:35.031Z,31.70
2024-03-12T03:54:35.193Z,31.70
2024-03-12T03:55:35.353Z,31.66
2024-03-12T03:56:35.508Z,31.71
2024-03-12T03:57:35.742Z,31.84
2024-03-12T03:58:35.823Z,31.78
2024-03-12T03:59:35.975Z,31.67
2024-03-12T04:00:36.157Z,31.73
2024-03-12T04:01:36.361Z,31.83
2024-03-12T04:02:36.466Z,31.67
2024-03-12T04:03:36.620Z,31.62
2024-03-12T04:04:36.784Z,31.55
2024-03-12T04:05:36.950Z,31.54
2024-03-12T04:06:37.206Z,31.59
2024-03-12T04:07:37.254Z,31.54
2024-03-12T04:08:37.426Z,31.61
2024-03-12T04:09:37.588Z,31.61
2024-03-12T04:10:37.720Z,31.59
2024-03-12T04:11:37.936Z,31.54
2024-03-12T04:12:38.017Z,31.61
2024-03-12T04:13:38.108Z,31.58
2024-03-12T04:14:38.187Z,31.63
2024-03-12T04:15:38.274Z,31.57
2024-03-12T04:16:38.313Z,31.56
2024-03-12T04:17:38.552Z,31.55
2024-03-12T04:18:38.705Z,31.59
2024-03-12T04:19:38.791Z,31.56
2024-03-12T04:20:38.977Z,31.58
2024-03-12T04:21:39.150Z,31.55
2024-03-12T04:22:39.298Z,31.54
2024-03-12T04:23:39.481Z,31.51
2024-03-12T04:24:39.685Z,31.53
2024-03-12T04:25:39.619Z,31.54
2024-03-12T04:26:39.715Z,31.53
2024-03-12T04:27:39.899Z,31.51
2024-03-12T04:28:39.991Z,31.50
2024-03-12T04:29:58.012Z,31.54
2024-03-12T04:30:58.048Z,31.53
2024-03-12T04:31:58.001Z,31.53
2024-03-12T04:32:58.034Z,31.50
2024-03-12T04:33:58.026Z,31.49
2024-03-12T04:34:58.021Z,31.50
2024-03-12T04:35:57.995Z,31.43
2024-03-12T04:36:58.068Z,31.43
2024-03-12T04:37:58.001Z,31.42
2024-03-12T04:38:58.009Z,31.46
2024-03-12T04:39:58.076Z,31.44
2024-03-12T04:40:58.088Z,31.43
2024-03-12T04:41:58.017Z,31.40
2024-03-12T04:42:58.038Z,31.43
2024-03-12T04:43:58.045Z,31.41
2024-03-12T04:44:58.104Z,31.40
2024-03-12T04:45:58.137Z,31.37
2024-03-12T04:46:58.212Z,31.36
2024-03-12T04:47:58.366Z,31.33
2024-03-12T04:48:58.494Z,31.38
2024-03-12T04:49:58.618Z,31.40
2024-03-12T04:50:58.673Z,31.36
2024-03-12T04:51:58.798Z,31.37
2024-03-12T04:52:58.906Z,31.34
2024-03-12T04:53:59.019Z,31.36
2024-03-12T04:54:59.100Z,31.35
2024-03-12T04:55:59.086Z,31.36
2024-03-12T04:56:59.135Z,31.29
2024-03-12T04:57:59.234Z,31.31
2024-03-12T04:58:59.232Z,31.29
2024-03-12T04:59:59.304Z,31.31
2024-03-12T05:00:59.499Z,31.31
2024-03-12T05:01:59.584Z,31.28
2024-03-12T05:02:59.659Z,31.32
2024-03-12T05:04:04.607Z,31.28
2024-03-12T05:05:00.763Z,31.31
2024-03-12T05:05:59.764Z,31.30
2024-03-12T05:06:59.771Z,31.29
2024-03-12T05:07:59.762Z,31.30
2024-03-12T05:08:59.791Z,31.28
2024-03-12T05:09:59.796Z,31.29
2024-03-12T05:11:02.526Z,31.32
2024-03-12T05:11:59.796Z,31.35
2024-03-12T05:12:59.855Z,31.31
2024-03-12T05:13:59.799Z,31.29
2024-03-12T05:14:59.811Z,31.32
2024-03-12T05:15:59.802Z,31.25
2024-03-12T05:16:59.789Z,31.28
2024-03-12T05:17:59.820Z,31.25
2024-03-12T05:18:59.864Z,31.28
2024-03-12T05:19:59.793Z,31.25
2024-03-12T05:20:59.821Z,31.28
2024-03-12T05:21:59.812Z,31.28
2024-03-12T05:22:59.809Z,31.27
2024-03-12T05:23:59.810Z,31.25
2024-03-12T05:24:59.875Z,31.27
2024-03-12T05:25:59.809Z,31.28
2024-03-12T05:27:04.325Z,31.29
2024-03-12T05:27:59.855Z,31.28
2024-03-12T05:28:59.801Z,31.28
2024-03-12T05:29:59.798Z,31.27
2024-03-12T05:30:59.855Z,31.28
2024-03-12T05:31:59.842Z,31.36
2024-03-12T05:32:59.892Z,31.28
2024-03-12T05:33:59.894Z,31.29
2024-03-12T05:34:59.870Z,31.31
2024-03-12T05:35:59.869Z,31.31
2024-03-12T05:37:03.026Z,31.31
2024-03-12T05:37:59.966Z,31.31
2024-03-12T05:38:59.947Z,31.28
2024-03-12T05:39:59.965Z,31.28
2024-03-12T05:40:59.978Z,31.24
2024-03-12T05:41:59.952Z,31.23
2024-03-12T05:42:59.986Z,31.24
2024-03-12T05:43:59.946Z,31.24
2024-03-12T05:44:59.958Z,31.28
2024-03-12T05:46:00.064Z,31.24
2024-03-12T05:47:00.030Z,31.25
2024-03-12T05:48:00.084Z,31.26
2024-03-12T05:49:00.012Z,31.28
2024-03-12T05:50:03.055Z,31.24
2024-03-12T05:51:00.178Z,31.27
2024-03-12T05:52:00.010Z,31.28
2024-03-12T05:52:59.972Z,31.25
2024-03-12T05:53:59.982Z,31.30
2024-03-12T05:54:59.995Z,31.27
2024-03-12T05:56:09.999Z,31.32
2024-03-12T05:56:59.985Z,31.31
2024-03-12T05:58:00.026Z,31.27
2024-03-12T05:58:59.986Z,31.28
2024-03-12T05:59:59.985Z,31.28
2024-03-12T06:01:00.031Z,31.27
2024-03-12T06:01:59.997Z,31.30
2024-03-12T06:03:00.028Z,31.30
2024-03-12T06:04:00.088Z,31.28
2024-03-12T06:04:59.991Z,31.29
2024-03-12T06:06:00.049Z,31.27
2024-03-12T06:07:00.050Z,31.27
2024-03-12T06:08:00.011Z,31.29
2024-03-12T06:09:00.028Z,31.27
2024-03-12T06:10:00.093Z,31.33
2024-03-12T06:11:00.007Z,31.29
2024-03-12T06:12:00.053Z,31.33
2024-03-12T06:13:00.042Z,31.36
2024-03-12T06:14:02.010Z,31.33
2024-03-12T06:15:00.027Z,31.34
2024-03-12T06:16:00.113Z,31.34
2024-03-12T06:17:00.028Z,31.32
2024-03-12T06:18:00.077Z,31.30
2024-03-12T06:19:00.045Z,31.31
2024-03-12T06:20:00.031Z,31.34
2024-03-12T06:21:00.023Z,31.31
2024-03-12T06:22:00.109Z,31.33
2024-03-12T06:23:00.006Z,31.30
2024-03-12T06:24:00.033Z,31.29
2024-03-12T06:25:00.039Z,31.27
2024-03-12T06:26:00.018Z,31.30
2024-03-12T06:27:00.010Z,31.33
2024-03-12T06:28:00.111Z,31.30
2024-03-12T06:29:00.026Z,31.29
2024-03-12T06:30:00.042Z,31.25
2024-03-12T06:31:00.070Z,31.28
2024-03-12T06:32:00.039Z,31.32
2024-03-12T06:33:00.095Z,31.22
2024-03-12T06:34:00.061Z,31.21
2024-03-12T06:35:00.042Z,31.28
2024-03-12T06:36:00.089Z,31.45
2024-03-12T06:37:00.102Z,31.41
2024-03-12T06:38:00.066Z,31.47
2024-03-12T06:39:00.102Z,31.44
2024-03-12T06:40:00.164Z,31.51
2024-03-12T06:41:00.052Z,32.71
2024-03-12T06:42:00.048Z,32.22
2024-03-12T06:43:00.057Z,32.27
2024-03-12T06:44:00.167Z,32.67
2024-03-12T06:45:00.301Z,33.02
2024-03-12T06:46:00.422Z,33.46
2024-03-12T06:47:00.471Z,33.55
2024-03-12T06:48:00.631Z,33.53
2024-03-12T06:49:00.795Z,33.30
2024-03-12T06:50:00.802Z,33.24
2024-03-12T06:51:00.895Z,33.89
2024-03-12T06:52:01.026Z,34.01
2024-03-12T06:53:01.131Z,34.24
2024-03-12T06:54:01.224Z,34.18
2024-03-12T06:55:01.371Z,34.95
2024-03-12T06:56:01.442Z,35.02
2024-03-12T06:57:01.571Z,35.15
2024-03-12T06:58:01.827Z,34.75
2024-03-12T06:59:01.822Z,34.81
2024-03-12T07:00:01.994Z,34.81
2024-03-12T07:01:02.244Z,34.41
2024-03-12T07:02:02.190Z,34.26
2024-03-12T07:03:02.270Z,34.00
2024-03-12T07:04:02.502Z,33.92
2024-03-12T07:05:02.527Z,33.89
2024-03-12T07:06:02.636Z,33.45
2024-03-12T07:07:02.801Z,33.44
2024-03-12T07:08:02.919Z,33.67
2024-03-12T07:09:03.008Z,33.47
2024-03-12T07:10:03.398Z,33.68
2024-03-12T07:11:03.323Z,33.37
2024-03-12T07:12:03.388Z,33.87
2024-03-12T07:13:03.602Z,33.99
2024-03-12T07:14:03.584Z,33.88
2024-03-12T07:15:03.693Z,33.44
2024-03-12T07:16:03.819Z,33.34
2024-03-12T07:17:03.881Z,33.35
2024-03-12T07:18:04.012Z,33.19
2024-03-12T07:19:04.101Z,33.19
2024-03-12T07:20:04.256Z,33.19
2024-03-12T07:21:04.401Z,33.18
2024-03-12T07:22:04.632Z,33.02
2024-03-12T07:23:04.731Z,33.12
2024-03-12T07:24:04.900Z,33.04
2024-03-12T07:25:05.081Z,33.03
2024-03-12T07:26:05.189Z,33.07
2024-03-12T07:27:05.325Z,33.02
2024-03-12T07:28:05.557Z,32.96
2024-03-12T07:29:05.637Z,33.02
2024-03-12T07:30:05.769Z,33.02
2024-03-12T07:31:05.899Z,32.98
2024-03-12T07:32:06.041Z,32.98
2024-03-12T07:33:06.302Z,32.94
2024-03-12T07:34:06.294Z,32.84
2024-03-12T07:35:06.356Z,32.87
2024-03-12T07:36:06.441Z,32.79
2024-03-12T07:37:06.610Z,32.79
2024-03-12T07:38:06.647Z,32.88
2024-03-12T07:39:06.746Z,32.80
2024-03-12T07:40:07.015Z,32.77
2024-03-12T07:41:06.955Z,32.81
2024-03-12T07:42:07.062Z,32.74
2024-03-12T07:43:07.300Z,32.77
2024-03-12T07:44:07.276Z,32.84
2024-03-12T07:45:07.366Z,32.81
2024-03-12T07:46:07.561Z,32.86
2024-03-12T07:47:07.626Z,32.76
2024-03-12T07:49:04.807Z,32.87
2024-03-12T07:50:04.771Z,32.79
2024-03-12T07:51:04.738Z,32.76
2024-03-12T07:52:04.810Z,32.79
2024-03-12T07:53:04.769Z,32.76
2024-03-12T07:54:04.763Z,33.09
2024-03-12T07:55:04.794Z,33.02
2024-03-12T07:56:04.766Z,33.01
2024-03-12T07:57:04.753Z,33.08
2024-03-12T07:58:04.783Z,33.16
2024-03-12T07:59:04.872Z,33.24
2024-03-12T08:00:04.980Z,33.44
2024-03-12T08:01:05.127Z,33.46
2024-03-12T08:02:05.323Z,33.44
2024-03-12T08:03:05.321Z,33.40
2024-03-12T08:04:05.446Z,33.45
2024-03-12T08:05:05.558Z,33.95
2024-03-12T08:06:05.643Z,33.68
2024-03-12T08:07:05.764Z,33.76
2024-03-12T08:08:05.835Z,33.57
2024-03-12T08:09:05.902Z,33.70
2024-03-12T08:10:06.022Z,33.44
2024-03-12T08:11:06.322Z,33.37
2024-03-12T08:12:06.182Z,33.51
2024-03-12T08:13:06.335Z,33.71
2024-03-12T08:14:06.341Z,33.67
2024-03-12T08:15:06.442Z,33.51
2024-03-12T08:16:06.599Z,33.38
2024-03-12T08:17:06.635Z,33.60
2024-03-12T08:18:13.322Z,33.41
2024-03-12T08:19:07.790Z,33.46
2024-03-12T08:20:06.727Z,33.38
2024-03-12T08:21:06.736Z,33.43
2024-03-12T08:22:06.809Z,33.56
2024-03-12T08:23:06.733Z,33.41
2024-03-12T08:24:06.768Z,33.58
2024-03-12T08:25:06.814Z,33.63
2024-03-12T08:26:06.822Z,33.62
2024-03-12T08:27:06.762Z,33.46
2024-03-12T08:28:06.807Z,33.59
2024-03-12T08:29:06.860Z,33.56
2024-03-12T08:30:06.941Z,33.45
2024-03-12T08:31:11.617Z,33.48
2024-03-12T08:32:08.156Z,33.51
2024-03-12T08:33:07.041Z,33.43
2024-03-12T08:34:07.098Z,33.50
2024-03-12T08:35:09.851Z,33.60
2024-03-12T08:36:07.045Z,33.82
2024-03-12T08:37:07.110Z,33.67
2024-03-12T08:38:07.083Z,33.53
2024-03-12T08:39:07.083Z,33.28
2024-03-12T08:40:07.167Z,33.49
2024-03-12T08:41:07.118Z,34.11
2024-03-12T08:42:07.042Z,34.09
2024-03-12T08:43:08.977Z,33.86
2024-03-12T08:44:07.069Z,33.64
2024-03-12T08:45:07.051Z,33.04
2024-03-12T08:46:07.178Z,32.37
2024-03-12T08:47:07.094Z,32.08
2024-03-12T08:48:07.173Z,31.44
2024-03-12T08:49:07.294Z,31.19
2024-03-12T08:50:07.186Z,31.57
2024-03-12T08:51:07.199Z,30.42
2024-03-12T08:52:07.345Z,29.63
2024-03-12T08:53:07.278Z,29.34
2024-03-12T08:54:07.315Z,29.73
2024-03-12T08:55:07.334Z,30.06
2024-03-12T08:56:07.339Z,30.29
2024-03-12T08:57:07.425Z,30.74
2024-03-12T08:58:07.469Z,31.08
2024-03-12T08:59:07.556Z,31.28
2024-03-12T09:00:07.620Z,31.42
2024-03-12T09:01:07.733Z,31.37
2024-03-12T09:02:07.801Z,31.49
2024-03-12T09:03:07.950Z,31.54
2024-03-12T09:04:08.159Z,31.77
2024-03-12T09:05:08.138Z,32.01
2024-03-12T09:06:08.215Z,32.18
2024-03-12T09:07:08.458Z,32.11
2024-03-12T09:08:08.555Z,32.32
2024-03-12T09:09:09.508Z,32.37
2024-03-12T09:10:08.838Z,32.40
2024-03-12T09:11:08.879Z,32.50
2024-03-12T09:12:08.948Z,32.55
2024-03-12T09:13:09.147Z,32.55
2024-03-12T09:14:09.169Z,32.44
2024-03-12T09:15:09.248Z,32.42
2024-03-12T09:16:09.474Z,32.43
2024-03-12T09:17:09.457Z,32.47
2024-03-12T09:18:09.589Z,32.51
2024-03-12T09:19:09.752Z,32.63
2024-03-12T09:20:09.789Z,32.63
2024-03-12T09:21:09.902Z,32.63
2024-03-12T09:22:10.075Z,32.78
2024-03-12T09:23:10.092Z,32.82
2024-03-12T09:24:10.200Z,32.84
2024-03-12T09:25:10.746Z,32.92
2024-03-12T09:26:10.444Z,32.92
2024-03-12T09:27:10.483Z,32.94
2024-03-12T09:28:10.624Z,32.91
2024-03-12T09:29:10.673Z,33.01
2024-03-12T09:30:10.752Z,33.07
2024-03-12T09:31:10.954Z,33.03
2024-03-12T09:32:10.925Z,33.00
2024-03-12T09:33:11.053Z,33.03
2024-03-12T09:34:11.198Z,33.13
2024-03-12T09:35:11.200Z,33.19
2024-03-12T09:36:11.254Z,33.24
2024-03-12T09:37:12.412Z,33.32
2024-03-12T09:38:11.448Z,33.27
2024-03-12T09:39:11.511Z,33.16
2024-03-12T09:40:11.707Z,36.01
2024-03-12T09:41:11.725Z,31.40
2024-03-12T09:42:11.851Z,31.21
2024-03-12T09:43:12.019Z,31.99
2024-03-12T09:44:12.076Z,32.05
2024-03-12T09:45:12.228Z,32.35
2024-03-12T09:46:12.445Z,32.53
2024-03-12T09:47:12.538Z,32.70
2024-03-12T09:48:12.731Z,33.01
2024-03-12T09:50:13.808Z,33.45
2024-03-12T09:51:13.818Z,33.69
2024-03-12T09:52:13.906Z,33.84
2024-03-12T09:53:13.799Z,33.64
2024-03-12T09:54:13.808Z,33.73
2024-03-12T09:55:14.207Z,33.50
2024-03-12T09:56:13.836Z,33.47
2024-03-12T09:57:13.809Z,32.96
2024-03-12T09:58:13.830Z,32.81
2024-03-12T09:59:13.821Z,32.49
2024-03-12T10:00:13.894Z,32.38
2024-03-12T10:01:14.317Z,32.16
2024-03-12T10:02:14.073Z,32.09
2024-03-12T10:03:14.096Z,32.10
2024-03-12T10:04:14.159Z,31.92
2024-03-12T10:05:14.148Z,32.18
2024-03-12T10:06:14.163Z,32.01
2024-03-12T10:07:14.229Z,31.75
2024-03-12T10:08:14.648Z,31.72
2024-03-12T10:09:14.256Z,31.62
2024-03-12T10:10:14.457Z,31.69
2024-03-12T10:11:14.515Z,31.68
2024-03-12T10:12:14.585Z,32.00
2024-03-12T10:13:14.717Z,31.87
2024-03-12T10:14:14.788Z,31.77
2024-03-12T10:15:14.892Z,31.70
2024-03-12T10:16:15.744Z,31.49
2024-03-12T10:17:16.148Z,31.07
2024-03-12T10:18:15.172Z,30.46
2024-03-12T10:19:15.358Z,30.52
2024-03-12T10:20:15.324Z,29.94
2024-03-12T10:21:15.447Z,29.91
2024-03-12T10:22:15.543Z,30.09
2024-03-12T10:23:15.565Z,30.56
2024-03-12T10:24:15.676Z,30.68
2024-03-12T10:25:15.750Z,30.94
2024-03-12T10:26:15.817Z,31.14
2024-03-12T10:27:15.948Z,31.20
2024-03-12T10:28:16.114Z,31.18
2024-03-12T10:29:16.245Z,31.20
2024-03-12T10:30:16.493Z,31.33
2024-03-12T10:31:16.744Z,31.34
2024-03-12T10:32:17.150Z,31.34
2024-03-12T10:33:16.910Z,31.15
2024-03-12T10:34:17.040Z,31.32
2024-03-12T10:35:17.041Z,31.25
2024-03-12T10:36:17.176Z,31.02
2024-03-12T10:37:17.339Z,31.12
2024-03-12T10:38:18.052Z,31.02
2024-03-12T10:39:17.475Z,31.45
2024-03-12T10:40:17.841Z,30.89
2024-03-12T10:41:17.999Z,31.06
2024-03-12T10:42:17.804Z,31.13
2024-03-12T10:43:17.888Z,31.26
2024-03-12T10:44:17.985Z,31.29
2024-03-12T10:45:18.087Z,31.02
2024-03-12T10:46:18.253Z,30.51
2024-03-12T10:47:18.203Z,30.77
2024-03-12T10:48:18.292Z,30.73
2024-03-12T10:49:18.368Z,30.15
2024-03-12T10:50:18.515Z,30.02
2024-03-12T10:51:18.637Z,29.86
2024-03-12T10:52:18.669Z,29.92
2024-03-12T10:53:18.738Z,29.78
2024-03-12T10:54:18.908Z,30.72
2024-03-12T10:55:18.965Z,30.07
2024-03-12T10:56:19.130Z,29.92
2024-03-12T10:57:19.178Z,30.12
2024-03-12T10:58:19.314Z,30.58
2024-03-12T10:59:19.343Z,30.57
2024-03-12T11:00:19.457Z,30.70
2024-03-12T11:01:20.022Z,30.83
2024-03-12T11:02:19.723Z,30.95
2024-03-12T11:03:19.779Z,30.76
2024-03-12T11:04:19.958Z,30.69
2024-03-12T11:05:19.997Z,30.54
2024-03-12T11:06:20.123Z,30.57
2024-03-12T11:07:20.231Z,30.40
2024-03-12T11:08:20.317Z,30.60
2024-03-12T11:09:20.396Z,30.11
2024-03-12T11:10:20.580Z,30.35
2024-03-12T11:11:20.838Z,30.28
2024-03-12T11:12:20.716Z,29.83
2024-03-12T11:13:20.821Z,30.08
2024-03-12T11:14:20.935Z,30.17
2024-03-12T11:15:20.973Z,30.30
2024-03-12T11:16:21.189Z,30.35
2024-03-12T11:17:21.158Z,30.35
2024-03-12T11:18:21.270Z,30.29
2024-03-12T11:19:21.470Z,30.01
2024-03-12T11:20:23.287Z,29.93
2024-03-12T11:21:21.453Z,29.93
2024-03-12T11:22:21.519Z,29.68
2024-03-12T11:23:21.494Z,29.92
2024-03-12T11:24:21.502Z,29.91
2024-03-12T11:25:21.538Z,29.93
2024-03-12T11:26:22.451Z,29.89
2024-03-12T11:27:22.555Z,29.71
2024-03-12T11:28:21.718Z,29.75
2024-03-12T11:29:21.513Z,29.67
2024-03-12T11:30:21.550Z,29.53
2024-03-12T11:31:21.610Z,30.06
2024-03-12T11:32:21.566Z,29.19
2024-03-12T11:33:21.538Z,29.32
2024-03-12T11:34:21.548Z,29.33
2024-03-12T11:35:21.559Z,29.71
2024-03-12T11:36:21.599Z,29.64
2024-03-12T11:37:21.614Z,29.73
2024-03-12T11:38:21.607Z,29.66
2024-03-12T11:39:21.681Z,29.37
2024-03-12T11:40:21.817Z,29.60
2024-03-12T11:41:21.891Z,29.60
2024-03-12T11:42:21.951Z,28.90
2024-03-12T11:43:22.062Z,29.45
2024-03-12T11:44:22.167Z,29.10
2024-03-12T11:45:22.271Z,29.78
2024-03-12T11:46:22.578Z,29.78
2024-03-12T11:47:22.489Z,30.36
2024-03-12T11:48:22.616Z,30.53
2024-03-12T11:49:22.715Z,30.55
2024-03-12T11:50:22.853Z,30.75
2024-03-12T11:51:22.969Z,30.98
2024-03-12T11:52:23.142Z,31.00
2024-03-12T11:53:23.212Z,31.12
2024-03-12T11:54:23.311Z,31.36
2024-03-12T11:55:23.376Z,31.53
2024-03-12T11:56:23.629Z,31.64
2024-03-12T11:57:23.510Z,31.73
2024-03-12T11:58:23.586Z,31.85
2024-03-12T11:59:23.667Z,31.92
2024-03-12T12:00:23.742Z,32.12
2024-03-12T12:01:24.051Z,32.18
2024-03-12T12:02:23.903Z,32.23
2024-03-12T12:03:23.964Z,32.32
2024-03-12T12:04:24.059Z,32.51
2024-03-12T12:05:24.142Z,32.52
2024-03-12T12:06:24.161Z,32.55
2024-03-12T12:07:24.266Z,32.58
2024-03-12T12:08:24.344Z,32.64
2024-03-12T12:09:24.408Z,32.41
2024-03-12T12:10:24.505Z,32.33
2024-03-12T12:11:24.575Z,32.08
2024-03-12T12:12:24.641Z,32.05
2024-03-12T12:13:24.711Z,31.54
2024-03-12T12:14:24.760Z,31.59
2024-03-12T12:15:24.872Z,31.59
2024-03-12T12:16:24.987Z,31.82
2024-03-12T12:17:25.013Z,31.52
2024-03-12T12:18:25.055Z,31.84
2024-03-12T12:19:28.283Z,31.77
2024-03-12T12:20:26.134Z,31.99
2024-03-12T12:21:25.147Z,31.73
2024-03-12T12:22:25.217Z,31.58
2024-03-12T12:23:25.137Z,31.56
2024-03-12T12:24:25.138Z,31.64
2024-03-12T12:25:25.179Z,31.91
2024-03-12T12:26:25.156Z,31.41
2024-03-12T12:27:25.177Z,31.48
2024-03-12T12:28:25.192Z,31.43
2024-03-12T12:29:25.192Z,31.36
2024-03-12T12:30:25.237Z,31.12
2024-03-12T12:31:25.247Z,31.10
2024-03-12T12:32:25.388Z,31.05
2024-03-12T12:33:25.375Z,30.94
2024-03-12T12:34:25.480Z,30.78
2024-03-12T12:35:25.590Z,31.23
2024-03-12T12:36:25.596Z,31.65
2024-03-12T12:37:25.685Z,31.71
2024-03-12T12:38:25.708Z,31.71
2024-03-12T12:39:36.062Z,31.80
2024-03-12T12:40:26.794Z,31.66
2024-03-12T12:41:25.717Z,31.77
2024-03-12T12:42:25.756Z,31.80
2024-03-12T12:43:25.734Z,31.77
2024-03-12T12:44:25.744Z,31.85
2024-03-12T12:45:25.940Z,31.81
2024-03-12T12:46:25.800Z,31.78
2024-03-12T12:47:25.783Z,31.77
2024-03-12T12:48:25.764Z,31.78
2024-03-12T12:49:26.009Z,31.74
2024-03-12T12:50:25.886Z,31.63
2024-03-12T12:51:25.930Z,31.54
2024-03-12T12:52:26.106Z,31.49
2024-03-12T12:53:26.058Z,31.63
2024-03-12T12:54:26.118Z,31.50
2024-03-12T12:55:26.238Z,31.44